Time;durP1;ratioP1;P1;durP2;ratioP2;P2;SDS_P1;SDS_P2;PMS_P1;PMS_P2;Temp;Humidity;BMP_temperature;BMP_pressure;BME280_temperature;BME280_humidity;BME280_pressure;Samples;Min_cycle;Max_cycle;Signal;HPM_P1;HPM_P2
2024/04/07 00:00:20;;;;;;;;;;;;;;;;;;416517;23;1006;-81
2024/04/07 00:00:30;;;;;;;;;;;;;;;;;;414426;23;1399;-81
2024/04/07 00:00:43;;;;;;;;;;;;;;;;;;418376;23;1411;-81
2024/04/07 00:00:53;;;;;;;;;;;;;;;;;;416493;23;981;-81
2024/04/07 00:01:04;;;;;;;;;;;;;;;;;;412497;24;793;-81
2024/04/07 00:01:14;;;;;;;;;;;;;;;;;;412689;24;986;-81
2024/04/07 00:01:24;;;;;;;;;;;;;;;;;;410610;24;920;-81
2024/04/07 00:01:35;;;;;;;;;;;;;;;;;;414532;23;1155;-81
2024/04/07 00:01:45;;;;;;;;;;;;;;;;;;412477;24;1455;-81
2024/04/07 00:01:55;;;;;;;;;;;;;;;;;;414556;23;970;-81
2024/04/07 00:02:06;;;;;;;;;;;;;;;;;;416247;23;950;-81
2024/04/07 00:02:16;;;;;;;;;;;;;;;;;;416381;23;772;-81
2024/04/07 00:02:27;;;;;;;;;;;;;;;;;;416274;23;812;-81
2024/04/07 00:02:37;;;;;;;;;;;;;;;;;;416350;23;974;-81
2024/04/07 00:02:48;;;;;;;;;;;;;;;;;;414325;23;998;-81
2024/04/07 00:02:58;;;;;;;;;;;;;;;;;;414445;23;1272;-81
2024/04/07 00:03:08;;;;;;;;;;;;;;;;;;414361;23;1073;-81
2024/04/07 00:03:18;;;;;;;;;;;;;;;;;;412444;23;1205;-81
2024/04/07 00:03:29;;;;;;;;;;;;;;;;;;414422;23;828;-81
2024/04/07 00:03:39;;;;;;;;;;;;;;;;;;414575;23;804;-81
2024/04/07 00:03:50;;;;;;;;;;;;;;;;;;414360;23;1150;-81
2024/04/07 00:04:01;;;;;;;;;;;;;;;;;;414472;23;1322;-81
2024/04/07 00:04:11;;;;;;;;;;;;;;;;;;414508;23;808;-81
2024/04/07 00:04:21;;;;;;;;;;;;;;;;;;414344;23;859;-81
2024/04/07 00:04:32;;;;;;;;;;;;;;;;;;414433;23;1002;-81
2024/04/07 00:04:42;;;;;;;;;;;;;;;;;;414426;23;990;-81
2024/04/07 00:04:52;;;;;;;;;;;;;;;;;;414514;23;963;-81
2024/04/07 00:05:02;;;;;;;;;;;;;;;;;;414424;23;959;-81
2024/04/07 00:05:13;;;;;;;;;;;;;;;;;;414391;23;995;-81
2024/04/07 00:05:23;;;;;;;;;;;;;;;;;;415192;23;778;-81
2024/04/07 00:05:34;;;;;;;;;;;;;;;;;;414361;23;1269;-81
2024/04/07 00:05:44;;;;;;;;;;;;;;;;;;413225;23;1002;-81
2024/04/07 00:05:54;;;;;;;;;;;;;;;;;;414790;23;1154;-81
2024/04/07 00:06:04;;;;;;;;;;;;;;;;;;416420;23;848;-81
2024/04/07 00:06:14;;;;;;;;;;;;;;;;;;416478;23;997;-81
2024/04/07 00:06:26;;;;;;;;;;;;;;;;;;416431;23;1186;-81
2024/04/07 00:06:37;;;;;;;;;;;;;;;;;;416545;23;793;-81
2024/04/07 00:06:47;;;;;;;;;;;;;;;;;;414381;23;1178;-81
2024/04/07 00:06:57;;;;;;;;;;;;;;;;;;414525;23;1031;-81
2024/04/07 00:07:07;;;;;;;;;;;;;;;;;;414503;23;1034;-81
2024/04/07 00:07:17;;;;;;;;;;;;;;;;;;416371;23;1173;-81
2024/04/07 00:07:27;;;;;;;;;;;;;;;;;;416489;23;998;-81
2024/04/07 00:07:38;;;;;;;;;;;;;;;;;;418108;23;1322;-81
2024/04/07 00:07:48;;;;;;;;;;;;;;;;;;418407;23;962;-81
2024/04/07 00:07:58;;;;;;;;;;;;;;;;;;416292;23;962;-81
2024/04/07 00:08:08;;;;;;;;;;;;;;;;;;412603;24;849;-81
2024/04/07 00:08:19;;;;;;;;;;;;;;;;;;414439;23;971;-81
2024/04/07 00:08:29;;;;;;;;;;;;;;;;;;414590;23;959;-81
2024/04/07 00:08:39;;;;;;;;;;;;;;;;;;414504;23;994;-81
2024/04/07 00:08:49;;;;;;;;;;;;;;;;;;412557;24;1238;-81
2024/04/07 00:09:00;;;;;;;;;;;;;;;;;;412676;24;959;-81
2024/04/07 00:09:10;;;;;;;;;;;;;;;;;;410538;24;1155;-81
2024/04/07 00:09:20;;;;;;;;;;;;;;;;;;410672;24;1215;-81
2024/04/07 00:09:31;;;;;;;;;;;;;;;;;;412430;24;1299;-81
2024/04/07 00:09:41;;;;;;;;;;;;;;;;;;412417;24;1249;-81
2024/04/07 00:09:51;;;;;;;;;;;;;;;;;;412480;24;1147;-81
2024/04/07 00:10:02;;;;;;;;;;;;;;;;;;412520;24;1056;-81
2024/04/07 00:10:13;;;;;;;;;;;;;;;;;;412534;24;1254;-81
2024/04/07 00:10:23;;;;;;;;;;;;;;;;;;412365;24;1296;-81
2024/04/07 00:10:35;;;;;;;;;;;;;;;;;;412549;24;991;-82
2024/04/07 00:10:45;;;;;;;;;;;;;;;;;;412369;24;884;-81
2024/04/07 00:10:55;;;;;;;;;;;;;;;;;;412486;24;1170;-81
2024/04/07 00:11:06;;;;;;;;;;;;;;;;;;412579;23;1194;-81
2024/04/07 00:11:16;;;;;;;;;;;;;;;;;;414539;23;1010;-81
2024/04/07 00:11:27;;;;;;;;;;;;;;;;;;414471;23;1013;-81
2024/04/07 00:11:38;;;;;;;;;;;;;;;;;;414578;23;923;-81
2024/04/07 00:11:48;;;;;;;;;;;;;;;;;;414462;23;982;-81
2024/04/07 00:12:00;;;;;;;;;;;;;;;;;;414518;23;844;-81
2024/04/07 00:12:10;;;;;;;;;;;;;;;;;;412513;24;1402;-81
2024/04/07 00:12:21;;;;;;;;;;;;;;;;;;414550;23;1030;-81
2024/04/07 00:12:31;;;;;;;;;;;;;;;;;;414227;23;1030;-81
2024/04/07 00:12:42;;;;;;;;;;;;;;;;;;414399;23;1289;-81
2024/04/07 00:12:52;;;;;;;;;;;;;;;;;;414356;23;998;-80
2024/04/07 00:13:02;;;;;;;;;;;;;;;;;;414563;23;903;-81
2024/04/07 00:13:13;;;;;;;;;;;;;;;;;;416364;23;1069;-81
2024/04/07 00:13:23;;;;;;;;;;;;;;;;;;418455;23;1021;-81
2024/04/07 00:13:33;;;;;;;;;;;;;;;;;;416481;23;1075;-81
2024/04/07 00:13:43;;;;;;;;;;;;;;;;;;416444;23;1073;-81
2024/04/07 00:13:53;;;;;;;;;;;;;;;;;;416387;23;978;-81
2024/04/07 00:14:04;;;;;;;;;;;;;;;;;;416399;23;1005;-81
2024/04/07 00:14:15;;;;;;;;;;;;;;;;;;416513;23;931;-81
2024/04/07 00:14:25;;;;;;;;;;;;;;;;;;416476;23;986;-81
2024/04/07 00:14:38;;;;;;;;;;;;;;;;;;416444;23;1011;-81
2024/04/07 00:14:49;;;;;;;;;;;;;;;;;;418401;23;1511;-81
2024/04/07 00:14:59;;;;;;;;;;;;;;;;;;418483;23;994;-81
2024/04/07 00:15:10;;;;;;;;;;;;;;;;;;416476;23;1096;-81
2024/04/07 00:15:20;;;;;;;;;;;;;;;;;;416412;23;990;-81
2024/04/07 00:15:30;;;;;;;;;;;;;;;;;;416405;23;1878;-81
2024/04/07 00:15:40;;;;;;;;;;;;;;;;;;416321;23;789;-81
2024/04/07 00:15:51;;;;;;;;;;;;;;;;;;416465;23;1024;-81
2024/04/07 00:16:01;;;;;;;;;;;;;;;;;;418244;23;1181;-81
2024/04/07 00:16:11;;;;;;;;;;;;;;;;;;416375;23;1193;-81
2024/04/07 00:16:22;;;;;;;;;;;;;;;;;;414439;23;1182;-81
2024/04/07 00:16:32;;;;;;;;;;;;;;;;;;412637;24;1085;-81
2024/04/07 00:16:42;;;;;;;;;;;;;;;;;;414425;23;1211;-81
2024/04/07 00:16:52;;;;;;;;;;;;;;;;;;414415;23;1202;-81
2024/04/07 00:17:03;;;;;;;;;;;;;;;;;;414547;23;951;-81
2024/04/07 00:17:13;;;;;;;;;;;;;;;;;;416407;23;990;-81
2024/04/07 00:17:23;;;;;;;;;;;;;;;;;;416469;23;936;-81
2024/04/07 00:17:34;;;;;;;;;;;;;;;;;;412544;23;1060;-81
2024/04/07 00:17:47;;;;;;;;;;;;;;;;;;416378;23;1282;-81
2024/04/07 00:17:57;;;;;;;;;;;;;;;;;;414420;23;1317;-81
2024/04/07 00:18:08;;;;;;;;;;;;;;;;;;414347;23;1007;-81
2024/04/07 00:18:18;;;;;;;;;;;;;;;;;;416506;23;986;-81
2024/04/07 00:18:28;;;;;;;;;;;;;;;;;;416311;23;1210;-81
2024/04/07 00:18:39;;;;;;;;;;;;;;;;;;416506;23;951;-81
2024/04/07 00:18:49;;;;;;;;;;;;;;;;;;414236;23;1172;-81
2024/04/07 00:18:59;;;;;;;;;;;;;;;;;;414576;23;971;-81
2024/04/07 00:19:10;;;;;;;;;;;;;;;;;;414383;23;1313;-81
2024/04/07 00:19:20;;;;;;;;;;;;;;;;;;416545;23;919;-81
2024/04/07 00:19:31;;;;;;;;;;;;;;;;;;415790;23;791;-81
2024/04/07 00:19:45;;;;;;;;;;;;;;;;;;416544;23;1013;-81
2024/04/07 00:19:56;;;;;;;;;;;;;;;;;;414419;23;1209;-81
2024/04/07 00:20:07;;;;;;;;;;;;;;;;;;414451;23;1262;-81
2024/04/07 00:20:17;;;;;;;;;;;;;;;;;;416353;23;1251;-81
2024/04/07 00:20:28;;;;;;;;;;;;;;;;;;418306;23;1196;-81
2024/04/07 00:20:38;;;;;;;;;;;;;;;;;;418261;23;1269;-81
2024/04/07 00:20:58;;;;;;;;;;;;;;;;;;418394;23;1181;-82
2024/04/07 00:21:08;;;;;;;;;;;;;;;;;;418467;23;982;-81
2024/04/07 00:21:18;;;;;;;;;;;;;;;;;;418368;23;800;-81
2024/04/07 00:21:29;;;;;;;;;;;;;;;;;;420290;23;1273;-81
2024/04/07 00:21:40;;;;;;;;;;;;;;;;;;416288;23;1198;-81
2024/04/07 00:21:50;;;;;;;;;;;;;;;;;;416514;23;986;-81
2024/04/07 00:22:00;;;;;;;;;;;;;;;;;;418371;23;773;-81
2024/04/07 00:22:12;;;;;;;;;;;;;;;;;;418363;23;1006;-81
2024/04/07 00:22:24;;;;;;;;;;;;;;;;;;414339;23;1270;-81
2024/04/07 00:22:34;;;;;;;;;;;;;;;;;;414439;23;1385;-81
2024/04/07 00:22:44;;;;;;;;;;;;;;;;;;416287;23;1013;-81
2024/04/07 00:22:54;;;;;;;;;;;;;;;;;;416457;23;959;-81
2024/04/07 00:23:05;;;;;;;;;;;;;;;;;;414396;23;1249;-81
2024/04/07 00:23:15;;;;;;;;;;;;;;;;;;416394;23;1194;-81
2024/04/07 00:23:26;;;;;;;;;;;;;;;;;;418250;23;1154;-81
2024/04/07 00:23:37;;;;;;;;;;;;;;;;;;420438;23;1249;-81
2024/04/07 00:23:47;;;;;;;;;;;;;;;;;;420264;23;1178;-81
2024/04/07 00:23:57;;;;;;;;;;;;;;;;;;416464;23;824;-81
2024/04/07 00:24:07;;;;;;;;;;;;;;;;;;416268;23;1277;-81
2024/04/07 00:24:18;;;;;;;;;;;;;;;;;;414578;23;994;-81
2024/04/07 00:24:28;;;;;;;;;;;;;;;;;;412403;23;1604;-82
2024/04/07 00:24:38;;;;;;;;;;;;;;;;;;412558;24;1283;-81
2024/04/07 00:24:49;;;;;;;;;;;;;;;;;;410534;24;1232;-81
2024/04/07 00:24:59;;;;;;;;;;;;;;;;;;412544;24;908;-81
2024/04/07 00:25:10;;;;;;;;;;;;;;;;;;412515;24;999;-81
2024/04/07 00:25:20;;;;;;;;;;;;;;;;;;412576;24;1034;-81
2024/04/07 00:25:30;;;;;;;;;;;;;;;;;;414290;23;1309;-81
2024/04/07 00:25:41;;;;;;;;;;;;;;;;;;414430;23;1200;-81
2024/04/07 00:25:51;;;;;;;;;;;;;;;;;;414542;23;808;-81
2024/04/07 00:26:01;;;;;;;;;;;;;;;;;;414502;23;832;-81
2024/04/07 00:26:11;;;;;;;;;;;;;;;;;;414281;23;840;-81
2024/04/07 00:26:22;;;;;;;;;;;;;;;;;;416446;23;1002;-81
2024/04/07 00:26:32;;;;;;;;;;;;;;;;;;418073;23;780;-81
2024/04/07 00:26:42;;;;;;;;;;;;;;;;;;418461;23;764;-81
2024/04/07 00:26:52;;;;;;;;;;;;;;;;;;418452;23;974;-82
2024/04/07 00:27:03;;;;;;;;;;;;;;;;;;420398;23;918;-81
2024/04/07 00:27:13;;;;;;;;;;;;;;;;;;420404;23;891;-81
2024/04/07 00:27:23;;;;;;;;;;;;;;;;;;418367;23;1149;-81
2024/04/07 00:27:34;;;;;;;;;;;;;;;;;;418306;23;986;-81
2024/04/07 00:27:45;;;;;;;;;;;;;;;;;;420408;23;1250;-81
2024/04/07 00:27:55;;;;;;;;;;;;;;;;;;420382;23;1033;-81
2024/04/07 00:28:06;;;;;;;;;;;;;;;;;;420355;23;1269;-81
2024/04/07 00:28:16;;;;;;;;;;;;;;;;;;420423;23;1029;-81
2024/04/07 00:28:27;;;;;;;;;;;;;;;;;;418440;23;1261;-81
2024/04/07 00:28:37;;;;;;;;;;;;;;;;;;420292;23;935;-81
2024/04/07 00:28:47;;;;;;;;;;;;;;;;;;416499;23;1003;-81
2024/04/07 00:28:58;;;;;;;;;;;;;;;;;;418428;23;1401;-81
2024/04/07 00:29:08;;;;;;;;;;;;;;;;;;418353;23;978;-81
2024/04/07 00:29:18;;;;;;;;;;;;;;;;;;418386;23;966;-81
2024/04/07 00:29:28;;;;;;;;;;;;;;;;;;418500;23;1011;-81
2024/04/07 00:29:38;;;;;;;;;;;;;;;;;;416290;23;785;-81
2024/04/07 00:29:50;;;;;;;;;;;;;;;;;;418393;23;1053;-81
2024/04/07 00:30:00;;;;;;;;;;;;;;;;;;418392;23;998;-81
2024/04/07 00:30:10;;;;;;;;;;;;;;;;;;416201;23;1301;-81
2024/04/07 00:30:20;;;;;;;;;;;;;;;;;;414605;23;990;-81
2024/04/07 00:30:31;;;;;;;;;;;;;;;;;;414473;23;1191;-81
2024/04/07 00:30:41;;;;;;;;;;;;;;;;;;414460;23;990;-81
2024/04/07 00:30:52;;;;;;;;;;;;;;;;;;414540;23;800;-81
2024/04/07 00:31:02;;;;;;;;;;;;;;;;;;416414;23;1191;-81
2024/04/07 00:31:13;;;;;;;;;;;;;;;;;;416351;23;1281;-81
2024/04/07 00:31:23;;;;;;;;;;;;;;;;;;416427;23;903;-81
2024/04/07 00:31:34;;;;;;;;;;;;;;;;;;418491;23;1017;-81
2024/04/07 00:31:44;;;;;;;;;;;;;;;;;;418405;23;986;-81
2024/04/07 00:31:54;;;;;;;;;;;;;;;;;;416288;23;1147;-81
2024/04/07 00:32:05;;;;;;;;;;;;;;;;;;416402;23;1026;-81
2024/04/07 00:32:15;;;;;;;;;;;;;;;;;;416315;23;1192;-81
2024/04/07 00:32:25;;;;;;;;;;;;;;;;;;418243;23;1212;-81
2024/04/07 00:32:35;;;;;;;;;;;;;;;;;;418490;23;994;-80
2024/04/07 00:32:45;;;;;;;;;;;;;;;;;;416325;23;1272;-81
2024/04/07 00:32:56;;;;;;;;;;;;;;;;;;416371;23;1162;-81
2024/04/07 00:33:06;;;;;;;;;;;;;;;;;;416585;23;950;-81
2024/04/07 00:33:16;;;;;;;;;;;;;;;;;;414395;23;1167;-81
2024/04/07 00:33:27;;;;;;;;;;;;;;;;;;414577;23;943;-80
2024/04/07 00:33:38;;;;;;;;;;;;;;;;;;414347;23;1295;-81
2024/04/07 00:33:48;;;;;;;;;;;;;;;;;;414483;23;769;-81
2024/04/07 00:33:58;;;;;;;;;;;;;;;;;;416430;23;974;-81
2024/04/07 00:34:08;;;;;;;;;;;;;;;;;;414355;23;879;-81
2024/04/07 00:34:18;;;;;;;;;;;;;;;;;;414244;23;1252;-81
2024/04/07 00:34:29;;;;;;;;;;;;;;;;;;416511;23;982;-81
2024/04/07 00:34:39;;;;;;;;;;;;;;;;;;412590;24;813;-81
2024/04/07 00:34:50;;;;;;;;;;;;;;;;;;414327;23;935;-81
2024/04/07 00:35:00;;;;;;;;;;;;;;;;;;414462;23;967;-81
2024/04/07 00:35:10;;;;;;;;;;;;;;;;;;418378;23;784;-81
2024/04/07 00:35:20;;;;;;;;;;;;;;;;;;418358;23;1263;-81
2024/04/07 00:35:31;;;;;;;;;;;;;;;;;;416378;23;1886;-81
2024/04/07 00:35:41;;;;;;;;;;;;;;;;;;412563;24;955;-81
2024/04/07 00:35:55;;;;;;;;;;;;;;;;;;412552;24;1037;-81
2024/04/07 00:36:06;;;;;;;;;;;;;;;;;;410544;24;1334;-81
2024/04/07 00:36:16;;;;;;;;;;;;;;;;;;414411;23;1312;-81
2024/04/07 00:36:26;;;;;;;;;;;;;;;;;;416423;23;975;-81
2024/04/07 00:36:36;;;;;;;;;;;;;;;;;;416398;23;1049;-81
2024/04/07 00:36:46;;;;;;;;;;;;;;;;;;418398;23;1326;-81
2024/04/07 00:36:57;;;;;;;;;;;;;;;;;;418299;23;942;-81
2024/04/07 00:37:08;;;;;;;;;;;;;;;;;;412462;24;1277;-81
2024/04/07 00:37:19;;;;;;;;;;;;;;;;;;412512;24;1107;-81
2024/04/07 00:37:29;;;;;;;;;;;;;;;;;;412481;24;1050;-81
2024/04/07 00:37:40;;;;;;;;;;;;;;;;;;412587;24;1014;-81
2024/04/07 00:37:51;;;;;;;;;;;;;;;;;;414297;23;1245;-82
2024/04/07 00:38:01;;;;;;;;;;;;;;;;;;410492;24;1326;-81
2024/04/07 00:38:11;;;;;;;;;;;;;;;;;;414440;23;1228;-81
2024/04/07 00:38:21;;;;;;;;;;;;;;;;;;412357;24;1218;-81
2024/04/07 00:38:32;;;;;;;;;;;;;;;;;;414440;23;923;-81
2024/04/07 00:38:42;;;;;;;;;;;;;;;;;;412693;24;765;-81
2024/04/07 00:38:52;;;;;;;;;;;;;;;;;;410529;24;1289;-81
2024/04/07 00:39:03;;;;;;;;;;;;;;;;;;412668;24;907;-81
2024/04/07 00:39:13;;;;;;;;;;;;;;;;;;412424;24;991;-81
2024/04/07 00:39:23;;;;;;;;;;;;;;;;;;410599;24;1272;-81
2024/04/07 00:39:33;;;;;;;;;;;;;;;;;;412514;24;931;-81
2024/04/07 00:39:44;;;;;;;;;;;;;;;;;;414562;23;993;-81
2024/04/07 00:39:55;;;;;;;;;;;;;;;;;;414312;23;1151;-81
2024/04/07 00:40:06;;;;;;;;;;;;;;;;;;414327;23;1277;-81
2024/04/07 00:40:16;;;;;;;;;;;;;;;;;;414327;23;1157;-81
2024/04/07 00:40:26;;;;;;;;;;;;;;;;;;414467;23;1179;-81
2024/04/07 00:40:37;;;;;;;;;;;;;;;;;;414313;23;923;-81
2024/04/07 00:40:47;;;;;;;;;;;;;;;;;;414443;23;1014;-81
2024/04/07 00:40:58;;;;;;;;;;;;;;;;;;414317;23;1249;-81
2024/04/07 00:41:08;;;;;;;;;;;;;;;;;;412586;24;979;-81
2024/04/07 00:41:18;;;;;;;;;;;;;;;;;;416411;23;1208;-81
2024/04/07 00:41:29;;;;;;;;;;;;;;;;;;416494;23;954;-81
2024/04/07 00:41:39;;;;;;;;;;;;;;;;;;418307;23;1277;-81
2024/04/07 00:41:49;;;;;;;;;;;;;;;;;;414411;23;1025;-81
2024/04/07 00:41:59;;;;;;;;;;;;;;;;;;414411;23;1157;-81
2024/04/07 00:42:10;;;;;;;;;;;;;;;;;;416350;23;1037;-81
2024/04/07 00:42:20;;;;;;;;;;;;;;;;;;418366;23;789;-81
2024/04/07 00:42:30;;;;;;;;;;;;;;;;;;414408;23;1287;-81
2024/04/07 00:42:45;;;;;;;;;;;;;;;;;;412499;24;1023;-81
2024/04/07 00:42:55;;;;;;;;;;;;;;;;;;412381;24;1205;-81
2024/04/07 00:43:06;;;;;;;;;;;;;;;;;;412556;24;1007;-80
2024/04/07 00:43:16;;;;;;;;;;;;;;;;;;414275;23;1014;-81
2024/04/07 00:43:27;;;;;;;;;;;;;;;;;;412644;24;967;-81
2024/04/07 00:43:40;;;;;;;;;;;;;;;;;;412390;24;1332;-81
2024/04/07 00:43:50;;;;;;;;;;;;;;;;;;410504;24;1174;-81
2024/04/07 00:44:00;;;;;;;;;;;;;;;;;;410577;24;856;-81
2024/04/07 00:44:10;;;;;;;;;;;;;;;;;;412579;24;1056;-81
2024/04/07 00:44:20;;;;;;;;;;;;;;;;;;412502;24;1003;-81
2024/04/07 00:44:31;;;;;;;;;;;;;;;;;;414358;23;1002;-81
2024/04/07 00:44:41;;;;;;;;;;;;;;;;;;414400;23;694;-81
2024/04/07 00:44:51;;;;;;;;;;;;;;;;;;416411;23;931;-81
2024/04/07 00:45:02;;;;;;;;;;;;;;;;;;416312;23;1249;-81
2024/04/07 00:45:12;;;;;;;;;;;;;;;;;;416331;23;1347;-81
2024/04/07 00:45:23;;;;;;;;;;;;;;;;;;416302;23;1025;-81
2024/04/07 00:45:33;;;;;;;;;;;;;;;;;;412587;24;943;-81
2024/04/07 00:45:43;;;;;;;;;;;;;;;;;;412465;24;1006;-81
2024/04/07 00:45:54;;;;;;;;;;;;;;;;;;412517;24;1037;-81
2024/04/07 00:46:04;;;;;;;;;;;;;;;;;;412509;24;983;-81
2024/04/07 00:46:15;;;;;;;;;;;;;;;;;;414489;23;1316;-81
2024/04/07 00:46:26;;;;;;;;;;;;;;;;;;416236;23;1348;-81
2024/04/07 00:46:40;;;;;;;;;;;;;;;;;;418436;23;987;-81
2024/04/07 00:46:51;;;;;;;;;;;;;;;;;;418386;23;993;-81
2024/04/07 00:47:01;;;;;;;;;;;;;;;;;;418470;23;820;-81
2024/04/07 00:47:11;;;;;;;;;;;;;;;;;;414300;23;1318;-81
2024/04/07 00:47:22;;;;;;;;;;;;;;;;;;414393;23;1293;-81
2024/04/07 00:47:32;;;;;;;;;;;;;;;;;;416256;23;1226;-81
2024/04/07 00:47:43;;;;;;;;;;;;;;;;;;412516;24;896;-81
2024/04/07 00:47:53;;;;;;;;;;;;;;;;;;412567;24;979;-81
2024/04/07 00:48:04;;;;;;;;;;;;;;;;;;412590;24;829;-81
2024/04/07 00:48:17;;;;;;;;;;;;;;;;;;416301;23;1014;-81
2024/04/07 00:48:27;;;;;;;;;;;;;;;;;;414459;23;1283;-81
2024/04/07 00:48:37;;;;;;;;;;;;;;;;;;414406;23;1194;-80
2024/04/07 00:48:48;;;;;;;;;;;;;;;;;;414567;23;987;-81
2024/04/07 00:48:59;;;;;;;;;;;;;;;;;;416259;23;1447;-81
2024/04/07 00:49:09;;;;;;;;;;;;;;;;;;418431;23;1226;-81
2024/04/07 00:49:20;;;;;;;;;;;;;;;;;;416321;23;1206;-81
2024/04/07 00:49:30;;;;;;;;;;;;;;;;;;416562;23;958;-81
2024/04/07 00:49:42;;;;;;;;;;;;;;;;;;412482;24;1003;-81
2024/04/07 00:49:52;;;;;;;;;;;;;;;;;;412552;24;983;-81
2024/04/07 00:50:03;;;;;;;;;;;;;;;;;;412508;24;800;-81
2024/04/07 00:50:15;;;;;;;;;;;;;;;;;;412596;24;805;-81
2024/04/07 00:50:25;;;;;;;;;;;;;;;;;;414492;23;1082;-81
2024/04/07 00:50:36;;;;;;;;;;;;;;;;;;414508;23;1015;-81
2024/04/07 00:50:47;;;;;;;;;;;;;;;;;;414393;23;978;-81
2024/04/07 00:50:58;;;;;;;;;;;;;;;;;;414521;23;975;-81
2024/04/07 00:51:09;;;;;;;;;;;;;;;;;;414437;23;995;-81
2024/04/07 00:51:19;;;;;;;;;;;;;;;;;;416379;23;978;-81
2024/04/07 00:51:30;;;;;;;;;;;;;;;;;;414441;23;951;-81
2024/04/07 00:51:41;;;;;;;;;;;;;;;;;;414437;23;987;-81
2024/04/07 00:51:52;;;;;;;;;;;;;;;;;;414366;23;927;-81
2024/04/07 00:52:02;;;;;;;;;;;;;;;;;;414417;23;1022;-81
2024/04/07 00:52:12;;;;;;;;;;;;;;;;;;414537;23;899;-81
2024/04/07 00:52:23;;;;;;;;;;;;;;;;;;416167;23;1261;-81
2024/04/07 00:52:33;;;;;;;;;;;;;;;;;;420300;23;978;-81
2024/04/07 00:52:43;;;;;;;;;;;;;;;;;;416298;23;1288;-81
2024/04/07 00:52:54;;;;;;;;;;;;;;;;;;412427;24;1003;-81
2024/04/07 00:53:04;;;;;;;;;;;;;;;;;;412406;24;911;-80
2024/04/07 00:53:15;;;;;;;;;;;;;;;;;;414491;23;931;-81
2024/04/07 00:53:26;;;;;;;;;;;;;;;;;;414371;23;1259;-81
2024/04/07 00:53:36;;;;;;;;;;;;;;;;;;414554;23;935;-81
2024/04/07 00:53:47;;;;;;;;;;;;;;;;;;414455;23;959;-81
2024/04/07 00:53:57;;;;;;;;;;;;;;;;;;414521;23;1038;-81
2024/04/07 00:54:08;;;;;;;;;;;;;;;;;;414403;23;971;-81
2024/04/07 00:54:20;;;;;;;;;;;;;;;;;;414383;23;1425;-81
2024/04/07 00:54:30;;;;;;;;;;;;;;;;;;412522;24;959;-81
2024/04/07 00:54:41;;;;;;;;;;;;;;;;;;414449;23;995;-81
2024/04/07 00:54:52;;;;;;;;;;;;;;;;;;412345;24;1309;-81
2024/04/07 00:55:02;;;;;;;;;;;;;;;;;;412470;24;947;-81
2024/04/07 00:55:13;;;;;;;;;;;;;;;;;;412497;24;916;-81
2024/04/07 00:55:23;;;;;;;;;;;;;;;;;;412573;24;966;-80
2024/04/07 00:55:33;;;;;;;;;;;;;;;;;;410427;24;1945;-81
2024/04/07 00:55:44;;;;;;;;;;;;;;;;;;410659;24;999;-81
2024/04/07 00:55:54;;;;;;;;;;;;;;;;;;410592;24;963;-81
2024/04/07 00:56:05;;;;;;;;;;;;;;;;;;410524;24;1233;-81
2024/04/07 00:56:15;;;;;;;;;;;;;;;;;;414389;23;967;-81
2024/04/07 00:56:25;;;;;;;;;;;;;;;;;;414482;23;807;-80
2024/04/07 00:56:35;;;;;;;;;;;;;;;;;;414311;23;1366;-81
2024/04/07 00:56:46;;;;;;;;;;;;;;;;;;412396;24;1306;-81
2024/04/07 00:56:56;;;;;;;;;;;;;;;;;;412385;24;757;-81
2024/04/07 00:57:08;;;;;;;;;;;;;;;;;;414365;23;982;-81
2024/04/07 00:57:18;;;;;;;;;;;;;;;;;;414311;23;1462;-81
2024/04/07 00:57:29;;;;;;;;;;;;;;;;;;412570;24;1164;-81
2024/04/07 00:57:39;;;;;;;;;;;;;;;;;;410091;24;1014;-81
2024/04/07 00:57:50;;;;;;;;;;;;;;;;;;414284;23;1169;-81
2024/04/07 00:58:00;;;;;;;;;;;;;;;;;;414528;23;900;-81
2024/04/07 00:58:11;;;;;;;;;;;;;;;;;;414397;23;1006;-81
2024/04/07 00:58:21;;;;;;;;;;;;;;;;;;414446;23;761;-81
2024/04/07 00:58:32;;;;;;;;;;;;;;;;;;414502;23;959;-81
2024/04/07 00:58:42;;;;;;;;;;;;;;;;;;416307;23;852;-81
2024/04/07 00:58:52;;;;;;;;;;;;;;;;;;414519;23;939;-81
2024/04/07 00:59:03;;;;;;;;;;;;;;;;;;414472;23;792;-80
2024/04/07 00:59:13;;;;;;;;;;;;;;;;;;414363;23;1183;-81
2024/04/07 00:59:23;;;;;;;;;;;;;;;;;;414331;23;1150;-81
2024/04/07 00:59:34;;;;;;;;;;;;;;;;;;414400;23;1238;-81
2024/04/07 00:59:45;;;;;;;;;;;;;;;;;;414334;23;855;-82
2024/04/07 00:59:55;;;;;;;;;;;;;;;;;;414448;23;1230;-81
2024/04/07 01:00:06;;;;;;;;;;;;;;;;;;416076;23;1272;-81
2024/04/07 01:00:16;;;;;;;;;;;;;;;;;;414448;23;841;-81
2024/04/07 01:00:27;;;;;;;;;;;;;;;;;;412206;24;1369;-81
2024/04/07 01:00:38;;;;;;;;;;;;;;;;;;414542;23;978;-81
2024/04/07 01:00:48;;;;;;;;;;;;;;;;;;412487;24;998;-81
2024/04/07 01:00:58;;;;;;;;;;;;;;;;;;414428;23;978;-81
2024/04/07 01:01:08;;;;;;;;;;;;;;;;;;416394;23;793;-81
2024/04/07 01:01:19;;;;;;;;;;;;;;;;;;416323;23;994;-81
2024/04/07 01:01:29;;;;;;;;;;;;;;;;;;414337;23;986;-81
2024/04/07 01:01:39;;;;;;;;;;;;;;;;;;414435;23;1002;-81
2024/04/07 01:01:49;;;;;;;;;;;;;;;;;;413796;23;1174;-81
2024/04/07 01:01:59;;;;;;;;;;;;;;;;;;412421;24;1274;-81
2024/04/07 01:02:11;;;;;;;;;;;;;;;;;;414377;23;783;-81
2024/04/07 01:02:21;;;;;;;;;;;;;;;;;;412442;24;1326;-81
2024/04/07 01:02:31;;;;;;;;;;;;;;;;;;412408;24;879;-81
2024/04/07 01:02:42;;;;;;;;;;;;;;;;;;412568;24;761;-81
2024/04/07 01:02:52;;;;;;;;;;;;;;;;;;416158;23;1313;-81
2024/04/07 01:03:03;;;;;;;;;;;;;;;;;;416338;23;1234;-81
2024/04/07 01:03:15;;;;;;;;;;;;;;;;;;414297;23;947;-81
2024/04/07 01:03:26;;;;;;;;;;;;;;;;;;412487;24;1046;-81
2024/04/07 01:03:36;;;;;;;;;;;;;;;;;;414182;23;1167;-81
2024/04/07 01:03:46;;;;;;;;;;;;;;;;;;416388;23;943;-81
2024/04/07 01:03:56;;;;;;;;;;;;;;;;;;416315;23;836;-81
2024/04/07 01:04:07;;;;;;;;;;;;;;;;;;418370;23;1196;-81
2024/04/07 01:04:17;;;;;;;;;;;;;;;;;;416299;23;781;-81
2024/04/07 01:04:27;;;;;;;;;;;;;;;;;;412481;24;1468;-81
2024/04/07 01:04:37;;;;;;;;;;;;;;;;;;416228;23;1167;-81
2024/04/07 01:04:48;;;;;;;;;;;;;;;;;;412495;24;781;-81
2024/04/07 01:04:58;;;;;;;;;;;;;;;;;;414311;23;1487;-81
2024/04/07 01:05:08;;;;;;;;;;;;;;;;;;414500;23;1310;-81
2024/04/07 01:05:18;;;;;;;;;;;;;;;;;;416417;23;986;-81
2024/04/07 01:05:37;;;;;;;;;;;;;;;;;;416323;23;990;-81
2024/04/07 01:05:48;;;;;;;;;;;;;;;;;;416181;23;998;-81
2024/04/07 01:05:58;;;;;;;;;;;;;;;;;;416358;23;1422;-81
2024/04/07 01:06:09;;;;;;;;;;;;;;;;;;414342;23;1345;-81
2024/04/07 01:06:19;;;;;;;;;;;;;;;;;;414415;23;1490;-81
2024/04/07 01:06:29;;;;;;;;;;;;;;;;;;416312;23;1257;-81
2024/04/07 01:06:39;;;;;;;;;;;;;;;;;;416388;23;1159;-81
2024/04/07 01:06:50;;;;;;;;;;;;;;;;;;416398;23;951;-81
2024/04/07 01:07:00;;;;;;;;;;;;;;;;;;414327;23;1019;-81
2024/04/07 01:07:11;;;;;;;;;;;;;;;;;;414438;23;804;-81
2024/04/07 01:07:21;;;;;;;;;;;;;;;;;;412426;24;1297;-81
2024/04/07 01:07:31;;;;;;;;;;;;;;;;;;412368;24;1278;-81
2024/04/07 01:07:42;;;;;;;;;;;;;;;;;;410676;24;1237;-81
2024/04/07 01:07:54;;;;;;;;;;;;;;;;;;414355;23;1350;-83
2024/04/07 01:08:05;;;;;;;;;;;;;;;;;;412399;24;1342;-81
2024/04/07 01:08:16;;;;;;;;;;;;;;;;;;410425;24;1149;-81
2024/04/07 01:08:26;;;;;;;;;;;;;;;;;;410524;24;1103;-81
2024/04/07 01:08:37;;;;;;;;;;;;;;;;;;410501;24;959;-81
2024/04/07 01:08:48;;;;;;;;;;;;;;;;;;412446;24;1014;-81
2024/04/07 01:08:59;;;;;;;;;;;;;;;;;;412467;24;1287;-81
2024/04/07 01:09:09;;;;;;;;;;;;;;;;;;412387;24;994;-81
2024/04/07 01:09:20;;;;;;;;;;;;;;;;;;412472;23;1163;-81
2024/04/07 01:09:31;;;;;;;;;;;;;;;;;;410568;24;995;-80
2024/04/07 01:09:41;;;;;;;;;;;;;;;;;;412405;24;1139;-81
2024/04/07 01:09:52;;;;;;;;;;;;;;;;;;414416;23;1021;-81
2024/04/07 01:10:02;;;;;;;;;;;;;;;;;;416373;23;1151;-81
2024/04/07 01:10:13;;;;;;;;;;;;;;;;;;416209;23;1165;-81
2024/04/07 01:10:23;;;;;;;;;;;;;;;;;;416350;23;1257;-81
2024/04/07 01:10:33;;;;;;;;;;;;;;;;;;416443;23;1002;-81
2024/04/07 01:10:49;;;;;;;;;;;;;;;;;;414191;23;1190;-82
2024/04/07 01:10:59;;;;;;;;;;;;;;;;;;414274;23;927;-81
2024/04/07 01:11:09;;;;;;;;;;;;;;;;;;412368;24;1323;-81
2024/04/07 01:11:25;;;;;;;;;;;;;;;;;;414362;23;990;-81
2024/04/07 01:11:35;;;;;;;;;;;;;;;;;;414388;23;1010;-81
2024/04/07 01:11:45;;;;;;;;;;;;;;;;;;414351;23;1006;-81
2024/04/07 01:11:55;;;;;;;;;;;;;;;;;;412557;24;1065;-81
2024/04/07 01:12:12;;;;;;;;;;;;;;;;;;412319;24;967;-81
2024/04/07 01:12:22;;;;;;;;;;;;;;;;;;414230;23;931;-81
2024/04/07 01:12:33;;;;;;;;;;;;;;;;;;414324;23;1163;-81
2024/04/07 01:12:52;;;;;;;;;;;;;;;;;;412323;24;1285;-81
2024/04/07 01:13:04;;;;;;;;;;;;;;;;;;414169;23;1207;-81
2024/04/07 01:13:15;;;;;;;;;;;;;;;;;;414512;23;1030;-81
2024/04/07 01:13:28;;;;;;;;;;;;;;;;;;414238;23;1483;-81
2024/04/07 01:13:38;;;;;;;;;;;;;;;;;;414410;23;939;-81
2024/04/07 01:13:48;;;;;;;;;;;;;;;;;;412232;24;1255;-81
2024/04/07 01:13:58;;;;;;;;;;;;;;;;;;412534;24;837;-81
2024/04/07 01:14:09;;;;;;;;;;;;;;;;;;414450;23;816;-81
2024/04/07 01:14:19;;;;;;;;;;;;;;;;;;414458;23;979;-81
2024/04/07 01:14:29;;;;;;;;;;;;;;;;;;412408;24;1068;-81
2024/04/07 01:14:40;;;;;;;;;;;;;;;;;;410582;24;1018;-81
2024/04/07 01:14:50;;;;;;;;;;;;;;;;;;414324;23;1259;-81
2024/04/07 01:15:00;;;;;;;;;;;;;;;;;;414501;23;939;-81
2024/04/07 01:15:12;;;;;;;;;;;;;;;;;;414398;23;820;-81
2024/04/07 01:15:22;;;;;;;;;;;;;;;;;;414494;23;971;-81
2024/04/07 01:15:33;;;;;;;;;;;;;;;;;;414226;23;1932;-81
2024/04/07 01:15:43;;;;;;;;;;;;;;;;;;412315;24;1277;-81
2024/04/07 01:15:54;;;;;;;;;;;;;;;;;;410232;24;1180;-81